sensor_id;sensor_type;location;lat;lon;timestamp;temperature;humidity
18339;DHT22;9295;44.484;11.240;2023-02-28T00:01:34;4.30;99.90
18339;DHT22;9295;44.484;11.240;2023-02-28T00:04:03;4.30;99.90
18339;DHT22;9295;44.484;11.240;2023-02-28T00:06:33;4.40;99.90
18339;DHT22;9295;44.484;11.240;2023-02-28T00:09:01;4.40;99.90
18339;DHT22;9295;44.484;11.240;2023-02-28T00:11:30;4.40;99.90
18339;DHT22;9295;44.484;11.240;2023-02-28T00:13:58;4.40;99.90
18339;DHT22;9295;44.484;11.240;2023-02-28T00:16:27;4.40;99.90
18339;DHT22;9295;44.484;11.240;2023-02-28T00:18:55;4.40;99.90
18339;DHT22;9295;44.484;11.240;2023-02-28T00:21:24;4.40;99.90
18339;DHT22;9295;44.484;11.240;2023-02-28T00:23:55;4.40;99.90
18339;DHT22;9295;44.484;11.240;2023-02-28T00:26:23;4.40;99.90
18339;DHT22;9295;44.484;11.240;2023-02-28T00:28:52;4.40;99.90
18339;DHT22;9295;44.484;11.240;2023-02-28T00:31:22;4.40;99.90
18339;DHT22;9295;44.484;11.240;2023-02-28T00:33:51;4.40;99.90
18339;DHT22;9295;44.484;11.240;2023-02-28T00:36:20;4.40;99.90
18339;DHT22;9295;44.484;11.240;2023-02-28T00:38:49;4.40;99.90
18339;DHT22;9295;44.484;11.240;2023-02-28T00:41:19;4.40;99.90
18339;DHT22;9295;44.484;11.240;2023-02-28T00:43:47;4.40;99.90
18339;DHT22;9295;44.484;11.240;2023-02-28T00:46:16;4.40;99.90
18339;DHT22;9295;44.484;11.240;2023-02-28T00:48:44;4.40;99.90
18339;DHT22;9295;44.484;11.240;2023-02-28T00:51:14;4.50;99.90
18339;DHT22;9295;44.484;11.240;2023-02-28T00:53:42;4.50;99.90
18339;DHT22;9295;44.484;11.240;2023-02-28T00:56:11;4.50;99.90
18339;DHT22;9295;44.484;11.240;2023-02-28T00:58:42;4.60;99.90
18339;DHT22;9295;44.484;11.240;2023-02-28T01:01:10;4.60;99.90
18339;DHT22;9295;44.484;11.240;2023-02-28T01:03:39;4.60;99.90
18339;DHT22;9295;44.484;11.240;2023-02-28T01:06:07;4.60;99.90
18339;DHT22;9295;44.484;11.240;2023-02-28T01:08:38;4.60;99.90
18339;DHT22;9295;44.484;11.240;2023-02-28T01:11:11;4.60;99.90
18339;DHT22;9295;44.484;11.240;2023-02-28T01:13:41;4.60;99.90
18339;DHT22;9295;44.484;11.240;2023-02-28T01:16:13;4.60;99.90
18339;DHT22;9295;44.484;11.240;2023-02-28T01:18:42;4.60;99.90
18339;DHT22;9295;44.484;11.240;2023-02-28T01:21:13;4.60;99.90
18339;DHT22;9295;44.484;11.240;2023-02-28T01:23:41;4.60;99.90
18339;DHT22;9295;44.484;11.240;2023-02-28T01:26:12;4.70;99.90
18339;DHT22;9295;44.484;11.240;2023-02-28T01:28:42;4.70;99.90
18339;DHT22;9295;44.484;11.240;2023-02-28T01:31:13;4.70;99.90
18339;DHT22;9295;44.484;11.240;2023-02-28T01:33:42;4.60;99.90
18339;DHT22;9295;44.484;11.240;2023-02-28T01:36:12;4.60;99.90
18339;DHT22;9295;44.484;11.240;2023-02-28T01:38:42;4.60;99.90
18339;DHT22;9295;44.484;11.240;2023-02-28T01:41:15;4.60;99.90
18339;DHT22;9295;44.484;11.240;2023-02-28T01:43:57;4.60;99.90
18339;DHT22;9295;44.484;11.240;2023-02-28T01:46:27;4.70;99.90
18339;DHT22;9295;44.484;11.240;2023-02-28T01:49:01;4.70;99.90
18339;DHT22;9295;44.484;11.240;2023-02-28T01:51:36;4.70;99.90
18339;DHT22;9295;44.484;11.240;2023-02-28T01:54:08;4.60;99.90
18339;DHT22;9295;44.484;11.240;2023-02-28T01:56:45;4.70;99.90
18339;DHT22;9295;44.484;11.240;2023-02-28T01:59:20;4.70;99.90
18339;DHT22;9295;44.484;11.240;2023-02-28T02:01:53;4.60;99.90
18339;DHT22;9295;44.484;11.240;2023-02-28T02:04:24;4.60;99.90
18339;DHT22;9295;44.484;11.240;2023-02-28T02:06:55;4.70;99.90
18339;DHT22;9295;44.484;11.240;2023-02-28T02:09:23;4.60;99.90
18339;DHT22;9295;44.484;11.240;2023-02-28T02:11:55;4.60;99.90
18339;DHT22;9295;44.484;11.240;2023-02-28T02:14:45;4.60;99.90
18339;DHT22;9295;44.484;11.240;2023-02-28T02:17:28;4.60;99.90
18339;DHT22;9295;44.484;11.240;2023-02-28T02:20:23;4.60;99.90
18339;DHT22;9295;44.484;11.240;2023-02-28T02:23:33;4.60;99.90
18339;DHT22;9295;44.484;11.240;2023-02-28T02:26:36;4.50;99.90
18339;DHT22;9295;44.484;11.240;2023-02-28T02:35:31;4.50;99.90
18339;DHT22;9295;44.484;11.240;2023-02-28T02:38:08;4.50;99.90
18339;DHT22;9295;44.484;11.240;2023-02-28T02:40:43;4.50;99.90
18339;DHT22;9295;44.484;11.240;2023-02-28T02:43:17;4.50;99.90
18339;DHT22;9295;44.484;11.240;2023-02-28T02:45:52;4.50;99.90
18339;DHT22;9295;44.484;11.240;2023-02-28T02:48:26;4.50;99.90
18339;DHT22;9295;44.484;11.240;2023-02-28T02:51:00;4.50;99.90
18339;DHT22;9295;44.484;11.240;2023-02-28T02:53:36;4.50;99.90
18339;DHT22;9295;44.484;11.240;2023-02-28T02:56:07;4.50;99.90
18339;DHT22;9295;44.484;11.240;2023-02-28T02:58:40;4.50;99.90
18339;DHT22;9295;44.484;11.240;2023-02-28T03:01:14;4.50;99.90
18339;DHT22;9295;44.484;11.240;2023-02-28T03:03:46;4.50;99.90
18339;DHT22;9295;44.484;11.240;2023-02-28T03:06:16;4.50;99.90
18339;DHT22;9295;44.484;11.240;2023-02-28T03:08:44;4.50;99.90
18339;DHT22;9295;44.484;11.240;2023-02-28T03:11:14;4.50;99.90
18339;DHT22;9295;44.484;11.240;2023-02-28T03:14:02;4.50;99.90
18339;DHT22;9295;44.484;11.240;2023-02-28T03:16:36;4.50;99.90
18339;DHT22;9295;44.484;11.240;2023-02-28T03:19:26;4.50;99.90
18339;DHT22;9295;44.484;11.240;2023-02-28T03:22:14;4.50;99.90
18339;DHT22;9295;44.484;11.240;2023-02-28T03:24:49;4.50;99.90
18339;DHT22;9295;44.484;11.240;2023-02-28T03:27:24;4.50;99.90
18339;DHT22;9295;44.484;11.240;2023-02-28T03:30:00;4.50;99.90
18339;DHT22;9295;44.484;11.240;2023-02-28T03:32:35;4.50;99.90
18339;DHT22;9295;44.484;11.240;2023-02-28T03:35:08;4.50;99.90
18339;DHT22;9295;44.484;11.240;2023-02-28T03:37:41;4.50;99.90
18339;DHT22;9295;44.484;11.240;2023-02-28T03:40:14;4.50;99.90
18339;DHT22;9295;44.484;11.240;2023-02-28T03:42:47;4.50;99.90
18339;DHT22;9295;44.484;11.240;2023-02-28T03:45:18;4.50;99.90
18339;DHT22;9295;44.484;11.240;2023-02-28T03:47:51;4.50;99.90
18339;DHT22;9295;44.484;11.240;2023-02-28T03:50:22;4.50;99.90
18339;DHT22;9295;44.484;11.240;2023-02-28T03:53:00;4.50;99.90
18339;DHT22;9295;44.484;11.240;2023-02-28T03:55:36;4.60;99.90
18339;DHT22;9295;44.484;11.240;2023-02-28T03:58:12;4.60;99.90
18339;DHT22;9295;44.484;11.240;2023-02-28T04:00:47;4.60;99.90
18339;DHT22;9295;44.484;11.240;2023-02-28T04:03:17;4.60;99.90
18339;DHT22;9295;44.484;11.240;2023-02-28T04:05:50;4.60;99.90
18339;DHT22;9295;44.484;11.240;2023-02-28T04:08:22;4.60;99.90
18339;DHT22;9295;44.484;11.240;2023-02-28T04:10:54;4.60;99.90
18339;DHT22;9295;44.484;11.240;2023-02-28T04:13:24;4.60;99.90
18339;DHT22;9295;44.484;11.240;2023-02-28T04:15:53;4.60;99.90
18339;DHT22;9295;44.484;11.240;2023-02-28T04:18:21;4.60;99.90
18339;DHT22;9295;44.484;11.240;2023-02-28T04:20:50;4.60;99.90
18339;DHT22;9295;44.484;11.240;2023-02-28T04:23:20;4.60;99.90
18339;DHT22;9295;44.484;11.240;2023-02-28T04:25:48;4.60;99.90
18339;DHT22;9295;44.484;11.240;2023-02-28T04:28:18;4.60;99.90
18339;DHT22;9295;44.484;11.240;2023-02-28T04:30:46;4.60;99.90
18339;DHT22;9295;44.484;11.240;2023-02-28T04:33:15;4.60;99.90
18339;DHT22;9295;44.484;11.240;2023-02-28T04:35:43;4.50;99.90
18339;DHT22;9295;44.484;11.240;2023-02-28T04:38:12;4.60;99.90
18339;DHT22;9295;44.484;11.240;2023-02-28T04:40:42;4.60;99.90
18339;DHT22;9295;44.484;11.240;2023-02-28T04:43:10;4.50;99.90
18339;DHT22;9295;44.484;11.240;2023-02-28T04:45:39;4.60;99.90
18339;DHT22;9295;44.484;11.240;2023-02-28T04:48:07;4.50;99.90
18339;DHT22;9295;44.484;11.240;2023-02-28T04:50:36;4.50;99.90
18339;DHT22;9295;44.484;11.240;2023-02-28T04:53:04;4.50;99.90
18339;DHT22;9295;44.484;11.240;2023-02-28T04:55:33;4.50;99.90
18339;DHT22;9295;44.484;11.240;2023-02-28T04:58:03;4.50;99.90
18339;DHT22;9295;44.484;11.240;2023-02-28T05:00:31;4.50;99.90
18339;DHT22;9295;44.484;11.240;2023-02-28T05:03:00;4.50;99.90
18339;DHT22;9295;44.484;11.240;2023-02-28T05:05:28;4.50;99.90
18339;DHT22;9295;44.484;11.240;2023-02-28T05:07:57;4.50;99.90
18339;DHT22;9295;44.484;11.240;2023-02-28T05:10:25;4.50;99.90
18339;DHT22;9295;44.484;11.240;2023-02-28T05:12:54;4.50;99.90
18339;DHT22;9295;44.484;11.240;2023-02-28T05:15:24;4.50;99.90
18339;DHT22;9295;44.484;11.240;2023-02-28T05:17:52;4.50;99.90
18339;DHT22;9295;44.484;11.240;2023-02-28T05:20:21;4.50;99.90
18339;DHT22;9295;44.484;11.240;2023-02-28T05:22:50;4.50;99.90
18339;DHT22;9295;44.484;11.240;2023-02-28T05:25:21;4.50;99.90
18339;DHT22;9295;44.484;11.240;2023-02-28T05:27:49;4.50;99.90
18339;DHT22;9295;44.484;11.240;2023-02-28T05:30:18;4.50;99.90
18339;DHT22;9295;44.484;11.240;2023-02-28T05:32:51;4.40;99.90
18339;DHT22;9295;44.484;11.240;2023-02-28T05:35:19;4.50;99.90
18339;DHT22;9295;44.484;11.240;2023-02-28T05:37:47;4.50;99.90
18339;DHT22;9295;44.484;11.240;2023-02-28T05:40:16;4.50;99.90
18339;DHT22;9295;44.484;11.240;2023-02-28T05:42:47;4.50;99.90
18339;DHT22;9295;44.484;11.240;2023-02-28T05:45:18;4.50;99.90
18339;DHT22;9295;44.484;11.240;2023-02-28T05:47:47;4.40;99.90
18339;DHT22;9295;44.484;11.240;2023-02-28T05:50:16;4.40;99.90
18339;DHT22;9295;44.484;11.240;2023-02-28T05:52:48;4.40;99.90
18339;DHT22;9295;44.484;11.240;2023-02-28T05:55:16;4.40;99.90
18339;DHT22;9295;44.484;11.240;2023-02-28T05:57:45;4.40;99.90
18339;DHT22;9295;44.484;11.240;2023-02-28T06:00:14;4.30;99.90
18339;DHT22;9295;44.484;11.240;2023-02-28T06:02:44;4.30;99.90
18339;DHT22;9295;44.484;11.240;2023-02-28T06:05:17;4.30;99.90
18339;DHT22;9295;44.484;11.240;2023-02-28T06:07:45;4.30;99.90
18339;DHT22;9295;44.484;11.240;2023-02-28T06:10:14;4.30;99.90
18339;DHT22;9295;44.484;11.240;2023-02-28T06:12:42;4.20;99.90
18339;DHT22;9295;44.484;11.240;2023-02-28T06:15:12;4.20;99.90
18339;DHT22;9295;44.484;11.240;2023-02-28T06:17:41;4.20;99.90
18339;DHT22;9295;44.484;11.240;2023-02-28T06:20:11;4.10;99.90
18339;DHT22;9295;44.484;11.240;2023-02-28T06:22:42;4.10;99.90
18339;DHT22;9295;44.484;11.240;2023-02-28T06:25:11;4.10;99.90
18339;DHT22;9295;44.484;11.240;2023-02-28T06:27:39;4.00;99.90
18339;DHT22;9295;44.484;11.240;2023-02-28T06:30:09;4.00;99.90
18339;DHT22;9295;44.484;11.240;2023-02-28T06:32:37;4.00;99.90
18339;DHT22;9295;44.484;11.240;2023-02-28T06:35:07;4.00;99.90
18339;DHT22;9295;44.484;11.240;2023-02-28T06:37:35;4.00;99.90
18339;DHT22;9295;44.484;11.240;2023-02-28T06:40:10;4.00;99.90
18339;DHT22;9295;44.484;11.240;2023-02-28T06:42:40;4.00;99.90
18339;DHT22;9295;44.484;11.240;2023-02-28T06:45:09;4.00;99.90
18339;DHT22;9295;44.484;11.240;2023-02-28T06:47:39;4.00;99.90
18339;DHT22;9295;44.484;11.240;2023-02-28T06:50:09;4.00;99.90
18339;DHT22;9295;44.484;11.240;2023-02-28T06:52:38;4.00;99.90
18339;DHT22;9295;44.484;11.240;2023-02-28T06:55:09;4.00;99.90
18339;DHT22;9295;44.484;11.240;2023-02-28T06:57:38;4.10;99.90
18339;DHT22;9295;44.484;11.240;2023-02-28T07:00:08;4.10;99.90
18339;DHT22;9295;44.484;11.240;2023-02-28T07:02:37;4.10;99.90
18339;DHT22;9295;44.484;11.240;2023-02-28T07:05:06;4.10;99.90
18339;DHT22;9295;44.484;11.240;2023-02-28T07:07:35;4.10;99.90
18339;DHT22;9295;44.484;11.240;2023-02-28T07:10:06;4.20;99.90
18339;DHT22;9295;44.484;11.240;2023-02-28T07:12:36;4.20;99.90
18339;DHT22;9295;44.484;11.240;2023-02-28T07:15:06;4.20;99.90
18339;DHT22;9295;44.484;11.240;2023-02-28T07:17:34;4.20;99.90
18339;DHT22;9295;44.484;11.240;2023-02-28T07:20:03;4.20;99.90
18339;DHT22;9295;44.484;11.240;2023-02-28T07:22:32;4.20;99.90
18339;DHT22;9295;44.484;11.240;2023-02-28T07:25:01;4.30;99.90
18339;DHT22;9295;44.484;11.240;2023-02-28T07:27:30;4.30;99.90
18339;DHT22;9295;44.484;11.240;2023-02-28T07:30:00;4.30;99.90
18339;DHT22;9295;44.484;11.240;2023-02-28T07:32:30;4.40;99.90
18339;DHT22;9295;44.484;11.240;2023-02-28T07:34:59;4.40;99.90
18339;DHT22;9295;44.484;11.240;2023-02-28T07:37:27;4.50;99.90
18339;DHT22;9295;44.484;11.240;2023-02-28T07:39:58;4.60;99.90
18339;DHT22;9295;44.484;11.240;2023-02-28T07:42:28;4.60;99.90
18339;DHT22;9295;44.484;11.240;2023-02-28T07:44:56;4.60;99.90
18339;DHT22;9295;44.484;11.240;2023-02-28T07:47:29;4.70;99.90
18339;DHT22;9295;44.484;11.240;2023-02-28T07:49:59;4.80;99.90
18339;DHT22;9295;44.484;11.240;2023-02-28T07:52:27;4.80;99.90
18339;DHT22;9295;44.484;11.240;2023-02-28T07:54:56;4.80;99.90
18339;DHT22;9295;44.484;11.240;2023-02-28T07:57:24;4.80;99.90
18339;DHT22;9295;44.484;11.240;2023-02-28T07:59:53;4.80;99.90
18339;DHT22;9295;44.484;11.240;2023-02-28T08:02:22;4.80;99.90
18339;DHT22;9295;44.484;11.240;2023-02-28T08:04:52;4.80;99.90
18339;DHT22;9295;44.484;11.240;2023-02-28T08:07:20;4.80;99.90
18339;DHT22;9295;44.484;11.240;2023-02-28T08:09:49;4.80;99.90
18339;DHT22;9295;44.484;11.240;2023-02-28T08:12:17;4.80;99.90
18339;DHT22;9295;44.484;11.240;2023-02-28T08:14:46;4.80;99.90
18339;DHT22;9295;44.484;11.240;2023-02-28T08:17:14;4.80;99.90
18339;DHT22;9295;44.484;11.240;2023-02-28T08:19:45;4.90;99.90
18339;DHT22;9295;44.484;11.240;2023-02-28T08:22:15;4.90;99.90
18339;DHT22;9295;44.484;11.240;2023-02-28T08:24:44;4.90;99.90
18339;DHT22;9295;44.484;11.240;2023-02-28T08:27:13;4.90;99.90
18339;DHT22;9295;44.484;11.240;2023-02-28T08:29:41;5.00;99.90
18339;DHT22;9295;44.484;11.240;2023-02-28T08:32:10;5.10;99.90
18339;DHT22;9295;44.484;11.240;2023-02-28T08:34:56;5.20;99.90
18339;DHT22;9295;44.484;11.240;2023-02-28T08:37:26;5.20;99.90
18339;DHT22;9295;44.484;11.240;2023-02-28T08:39:54;5.30;99.90
18339;DHT22;9295;44.484;11.240;2023-02-28T08:42:23;5.30;99.90
18339;DHT22;9295;44.484;11.240;2023-02-28T08:44:52;5.30;99.90
18339;DHT22;9295;44.484;11.240;2023-02-28T08:47:21;5.30;99.90
18339;DHT22;9295;44.484;11.240;2023-02-28T08:49:50;5.40;99.90
18339;DHT22;9295;44.484;11.240;2023-02-28T08:52:19;5.40;99.90
18339;DHT22;9295;44.484;11.240;2023-02-28T08:54:49;5.50;99.90
18339;DHT22;9295;44.484;11.240;2023-02-28T08:57:18;5.60;99.90
18339;DHT22;9295;44.484;11.240;2023-02-28T08:59:46;5.70;99.90
18339;DHT22;9295;44.484;11.240;2023-02-28T09:02:15;5.70;99.90
18339;DHT22;9295;44.484;11.240;2023-02-28T09:04:44;5.80;99.90
18339;DHT22;9295;44.484;11.240;2023-02-28T09:07:13;5.80;99.90
18339;DHT22;9295;44.484;11.240;2023-02-28T09:09:42;5.90;99.90
18339;DHT22;9295;44.484;11.240;2023-02-28T09:12:22;6.00;99.90
18339;DHT22;9295;44.484;11.240;2023-02-28T09:14:53;6.10;99.90
18339;DHT22;9295;44.484;11.240;2023-02-28T09:17:21;6.20;99.90
18339;DHT22;9295;44.484;11.240;2023-02-28T09:19:57;6.20;99.90
18339;DHT22;9295;44.484;11.240;2023-02-28T09:22:26;6.30;99.90
18339;DHT22;9295;44.484;11.240;2023-02-28T09:24:55;6.30;99.90
18339;DHT22;9295;44.484;11.240;2023-02-28T09:27:25;6.40;99.90
18339;DHT22;9295;44.484;11.240;2023-02-28T09:29:53;6.50;99.90
18339;DHT22;9295;44.484;11.240;2023-02-28T09:32:22;6.50;99.90
18339;DHT22;9295;44.484;11.240;2023-02-28T09:34:50;6.60;99.90
18339;DHT22;9295;44.484;11.240;2023-02-28T09:37:19;6.50;99.90
18339;DHT22;9295;44.484;11.240;2023-02-28T09:39:47;6.60;99.90
18339;DHT22;9295;44.484;11.240;2023-02-28T09:42:30;6.60;99.90
18339;DHT22;9295;44.484;11.240;2023-02-28T09:45:05;6.60;99.90
18339;DHT22;9295;44.484;11.240;2023-02-28T09:47:38;6.70;99.90
18339;DHT22;9295;44.484;11.240;2023-02-28T09:50:16;6.70;99.90
18339;DHT22;9295;44.484;11.240;2023-02-28T09:52:49;6.80;99.90
18339;DHT22;9295;44.484;11.240;2023-02-28T09:55:21;6.80;99.90
18339;DHT22;9295;44.484;11.240;2023-02-28T09:57:52;6.80;99.90
18339;DHT22;9295;44.484;11.240;2023-02-28T10:00:26;6.80;99.90
18339;DHT22;9295;44.484;11.240;2023-02-28T10:03:12;6.90;99.90
18339;DHT22;9295;44.484;11.240;2023-02-28T10:05:49;6.90;99.90
18339;DHT22;9295;44.484;11.240;2023-02-28T10:08:24;6.90;99.90
18339;DHT22;9295;44.484;11.240;2023-02-28T10:10:56;7.00;99.90
18339;DHT22;9295;44.484;11.240;2023-02-28T10:13:32;7.10;99.90
18339;DHT22;9295;44.484;11.240;2023-02-28T10:16:06;7.20;99.90
18339;DHT22;9295;44.484;11.240;2023-02-28T10:18:41;7.20;99.90
18339;DHT22;9295;44.484;11.240;2023-02-28T10:21:18;7.20;99.90
18339;DHT22;9295;44.484;11.240;2023-02-28T10:23:48;7.20;99.90
18339;DHT22;9295;44.484;11.240;2023-02-28T10:26:18;7.20;99.90
18339;DHT22;9295;44.484;11.240;2023-02-28T10:28:46;7.20;99.90
18339;DHT22;9295;44.484;11.240;2023-02-28T10:31:19;7.30;99.90
18339;DHT22;9295;44.484;11.240;2023-02-28T10:33:48;7.30;99.90
18339;DHT22;9295;44.484;11.240;2023-02-28T10:36:18;7.40;99.90
18339;DHT22;9295;44.484;11.240;2023-02-28T10:38:47;7.50;99.90
18339;DHT22;9295;44.484;11.240;2023-02-28T10:41:27;7.50;99.90
18339;DHT22;9295;44.484;11.240;2023-02-28T10:44:15;7.60;99.90
18339;DHT22;9295;44.484;11.240;2023-02-28T10:46:48;7.70;99.90
18339;DHT22;9295;44.484;11.240;2023-02-28T10:49:20;7.70;99.90
18339;DHT22;9295;44.484;11.240;2023-02-28T10:51:52;7.70;99.90
18339;DHT22;9295;44.484;11.240;2023-02-28T10:54:24;7.60;99.90
18339;DHT22;9295;44.484;11.240;2023-02-28T10:57:15;7.60;99.90
18339;DHT22;9295;44.484;11.240;2023-02-28T10:59:45;7.70;99.90
18339;DHT22;9295;44.484;11.240;2023-02-28T11:02:33;7.60;99.90
18339;DHT22;9295;44.484;11.240;2023-02-28T11:05:02;7.50;99.90
18339;DHT22;9295;44.484;11.240;2023-02-28T11:07:51;7.40;99.90
18339;DHT22;9295;44.484;11.240;2023-02-28T11:10:25;7.50;99.90
18339;DHT22;9295;44.484;11.240;2023-02-28T11:12:55;7.50;99.90
18339;DHT22;9295;44.484;11.240;2023-02-28T11:15:28;7.60;99.90
18339;DHT22;9295;44.484;11.240;2023-02-28T11:18:02;7.80;99.90
18339;DHT22;9295;44.484;11.240;2023-02-28T11:20:35;7.80;99.90
18339;DHT22;9295;44.484;11.240;2023-02-28T11:23:05;7.90;99.90
18339;DHT22;9295;44.484;11.240;2023-02-28T11:25:40;7.90;99.90
18339;DHT22;9295;44.484;11.240;2023-02-28T11:28:25;8.00;99.90
18339;DHT22;9295;44.484;11.240;2023-02-28T11:31:03;8.00;99.90
18339;DHT22;9295;44.484;11.240;2023-02-28T11:33:40;7.90;99.90
18339;DHT22;9295;44.484;11.240;2023-02-28T11:36:12;7.90;99.90
18339;DHT22;9295;44.484;11.240;2023-02-28T11:38:45;7.80;99.90
18339;DHT22;9295;44.484;11.240;2023-02-28T11:41:28;7.80;99.90
18339;DHT22;9295;44.484;11.240;2023-02-28T11:44:10;7.80;99.90
18339;DHT22;9295;44.484;11.240;2023-02-28T11:46:48;7.70;99.90
18339;DHT22;9295;44.484;11.240;2023-02-28T11:49:32;7.70;99.90
18339;DHT22;9295;44.484;11.240;2023-02-28T11:52:10;7.70;99.90
18339;DHT22;9295;44.484;11.240;2023-02-28T12:00:44;7.70;99.90
18339;DHT22;9295;44.484;11.240;2023-02-28T12:03:27;7.40;99.90
18339;DHT22;9295;44.484;11.240;2023-02-28T12:06:05;7.10;99.90
18339;DHT22;9295;44.484;11.240;2023-02-28T12:09:00;7.00;99.90
18339;DHT22;9295;44.484;11.240;2023-02-28T12:11:41;6.90;99.90
18339;DHT22;9295;44.484;11.240;2023-02-28T12:14:38;6.90;99.90
18339;DHT22;9295;44.484;11.240;2023-02-28T12:17:22;7.00;99.90
18339;DHT22;9295;44.484;11.240;2023-02-28T12:20:02;7.10;99.90
18339;DHT22;9295;44.484;11.240;2023-02-28T12:22:43;7.40;99.90
18339;DHT22;9295;44.484;11.240;2023-02-28T12:25:48;7.60;99.90
18339;DHT22;9295;44.484;11.240;2023-02-28T12:28:23;7.60;99.90
18339;DHT22;9295;44.484;11.240;2023-02-28T12:30:58;7.70;99.90
18339;DHT22;9295;44.484;11.240;2023-02-28T12:33:32;7.80;99.90
18339;DHT22;9295;44.484;11.240;2023-02-28T12:36:07;8.00;99.90
18339;DHT22;9295;44.484;11.240;2023-02-28T12:38:44;8.20;99.90
18339;DHT22;9295;44.484;11.240;2023-02-28T12:41:15;8.20;99.90
18339;DHT22;9295;44.484;11.240;2023-02-28T12:43:47;8.10;99.90
18339;DHT22;9295;44.484;11.240;2023-02-28T12:46:21;8.00;99.90
18339;DHT22;9295;44.484;11.240;2023-02-28T12:48:53;7.90;99.90
18339;DHT22;9295;44.484;11.240;2023-02-28T12:51:24;8.00;99.90
18339;DHT22;9295;44.484;11.240;2023-02-28T12:54:01;8.00;99.90
18339;DHT22;9295;44.484;11.240;2023-02-28T12:56:38;7.90;99.90
18339;DHT22;9295;44.484;11.240;2023-02-28T12:59:19;7.40;99.90
18339;DHT22;9295;44.484;11.240;2023-02-28T13:02:02;7.00;99.90
18339;DHT22;9295;44.484;11.240;2023-02-28T13:08:03;6.60;99.90
18339;DHT22;9295;44.484;11.240;2023-02-28T13:10:43;6.80;99.90
18339;DHT22;9295;44.484;11.240;2023-02-28T13:13:16;7.10;99.90
18339;DHT22;9295;44.484;11.240;2023-02-28T13:16:04;7.30;99.90
18339;DHT22;9295;44.484;11.240;2023-02-28T13:18:35;7.50;99.90
18339;DHT22;9295;44.484;11.240;2023-02-28T13:21:08;7.10;99.90
18339;DHT22;9295;44.484;11.240;2023-02-28T13:23:59;6.70;99.90
18339;DHT22;9295;44.484;11.240;2023-02-28T13:29:38;6.80;99.90
18339;DHT22;9295;44.484;11.240;2023-02-28T13:32:42;7.10;99.90
18339;DHT22;9295;44.484;11.240;2023-02-28T13:35:36;7.30;99.90
18339;DHT22;9295;44.484;11.240;2023-02-28T13:38:21;7.00;99.90
18339;DHT22;9295;44.484;11.240;2023-02-28T13:40:50;6.70;99.90
18339;DHT22;9295;44.484;11.240;2023-02-28T13:43:18;6.80;99.90
18339;DHT22;9295;44.484;11.240;2023-02-28T13:46:13;7.10;99.90
18339;DHT22;9295;44.484;11.240;2023-02-28T13:48:42;7.40;99.90
18339;DHT22;9295;44.484;11.240;2023-02-28T13:51:41;7.50;99.90
18339;DHT22;9295;44.484;11.240;2023-02-28T13:54:23;7.40;99.90
18339;DHT22;9295;44.484;11.240;2023-02-28T13:57:04;7.10;99.90
18339;DHT22;9295;44.484;11.240;2023-02-28T13:59:45;7.20;99.90
18339;DHT22;9295;44.484;11.240;2023-02-28T14:02:40;7.40;99.90
18339;DHT22;9295;44.484;11.240;2023-02-28T14:05:15;7.40;99.90
18339;DHT22;9295;44.484;11.240;2023-02-28T14:07:47;7.20;99.90
18339;DHT22;9295;44.484;11.240;2023-02-28T14:10:25;6.80;99.90
18339;DHT22;9295;44.484;11.240;2023-02-28T14:13:04;6.50;99.90
18339;DHT22;9295;44.484;11.240;2023-02-28T14:15:45;6.30;99.90
18339;DHT22;9295;44.484;11.240;2023-02-28T14:18:23;6.40;99.90
18339;DHT22;9295;44.484;11.240;2023-02-28T14:20:58;6.70;99.90
18339;DHT22;9295;44.484;11.240;2023-02-28T14:23:46;6.90;99.90
18339;DHT22;9295;44.484;11.240;2023-02-28T14:26:32;7.10;99.90
18339;DHT22;9295;44.484;11.240;2023-02-28T14:29:18;7.30;99.90
18339;DHT22;9295;44.484;11.240;2023-02-28T14:31:57;7.40;99.90
18339;DHT22;9295;44.484;11.240;2023-02-28T14:34:37;7.00;99.90
18339;DHT22;9295;44.484;11.240;2023-02-28T14:37:14;6.70;99.90
18339;DHT22;9295;44.484;11.240;2023-02-28T14:39:44;6.70;99.90
18339;DHT22;9295;44.484;11.240;2023-02-28T14:42:28;6.90;99.90
18339;DHT22;9295;44.484;11.240;2023-02-28T14:44:58;7.10;99.90
18339;DHT22;9295;44.484;11.240;2023-02-28T14:47:29;7.30;99.90
18339;DHT22;9295;44.484;11.240;2023-02-28T14:50:00;7.20;99.90
18339;DHT22;9295;44.484;11.240;2023-02-28T14:52:32;6.80;99.90
18339;DHT22;9295;44.484;11.240;2023-02-28T14:55:04;6.70;99.90
18339;DHT22;9295;44.484;11.240;2023-02-28T14:57:39;6.90;99.90
18339;DHT22;9295;44.484;11.240;2023-02-28T15:00:13;7.10;99.90
18339;DHT22;9295;44.484;11.240;2023-02-28T15:02:42;7.20;99.90
18339;DHT22;9295;44.484;11.240;2023-02-28T15:05:22;7.30;99.90
18339;DHT22;9295;44.484;11.240;2023-02-28T15:08:02;7.20;99.90
18339;DHT22;9295;44.484;11.240;2023-02-28T15:10:31;7.10;99.90
18339;DHT22;9295;44.484;11.240;2023-02-28T15:13:02;6.70;99.90
18339;DHT22;9295;44.484;11.240;2023-02-28T15:15:41;6.40;99.90
18339;DHT22;9295;44.484;11.240;2023-02-28T15:18:32;6.60;99.90
18339;DHT22;9295;44.484;11.240;2023-02-28T15:21:07;6.80;99.90
18339;DHT22;9295;44.484;11.240;2023-02-28T15:23:36;6.90;99.90
18339;DHT22;9295;44.484;11.240;2023-02-28T15:26:05;7.10;99.90
18339;DHT22;9295;44.484;11.240;2023-02-28T15:28:34;7.10;99.90
18339;DHT22;9295;44.484;11.240;2023-02-28T15:31:21;7.10;99.90
18339;DHT22;9295;44.484;11.240;2023-02-28T15:33:56;7.10;99.90
18339;DHT22;9295;44.484;11.240;2023-02-28T15:36:29;6.60;99.90
18339;DHT22;9295;44.484;11.240;2023-02-28T15:39:00;6.80;99.90
18339;DHT22;9295;44.484;11.240;2023-02-28T15:41:42;7.10;99.90
18339;DHT22;9295;44.484;11.240;2023-02-28T15:44:23;7.20;99.90
18339;DHT22;9295;44.484;11.240;2023-02-28T15:46:59;7.10;99.90
18339;DHT22;9295;44.484;11.240;2023-02-28T15:49:31;7.10;99.90
18339;DHT22;9295;44.484;11.240;2023-02-28T15:52:15;7.00;99.90
18339;DHT22;9295;44.484;11.240;2023-02-28T15:54:45;6.90;99.90
18339;DHT22;9295;44.484;11.240;2023-02-28T15:57:18;6.80;99.90
18339;DHT22;9295;44.484;11.240;2023-02-28T15:59:51;6.70;99.90
18339;DHT22;9295;44.484;11.240;2023-02-28T16:02:22;6.70;99.90
18339;DHT22;9295;44.484;11.240;2023-02-28T16:04:59;6.70;99.90
18339;DHT22;9295;44.484;11.240;2023-02-28T16:07:29;6.60;99.90
18339;DHT22;9295;44.484;11.240;2023-02-28T16:09:58;6.60;99.90
18339;DHT22;9295;44.484;11.240;2023-02-28T16:12:28;6.60;99.90
18339;DHT22;9295;44.484;11.240;2023-02-28T16:14:58;6.60;99.90
18339;DHT22;9295;44.484;11.240;2023-02-28T16:17:34;6.70;99.90
18339;DHT22;9295;44.484;11.240;2023-02-28T16:20:11;6.80;99.90
18339;DHT22;9295;44.484;11.240;2023-02-28T16:22:41;6.90;99.90
18339;DHT22;9295;44.484;11.240;2023-02-28T16:25:12;6.80;99.90
18339;DHT22;9295;44.484;11.240;2023-02-28T16:27:42;6.80;99.90
18339;DHT22;9295;44.484;11.240;2023-02-28T16:30:18;6.70;99.90
18339;DHT22;9295;44.484;11.240;2023-02-28T16:32:47;6.70;99.90
18339;DHT22;9295;44.484;11.240;2023-02-28T16:35:16;6.60;99.90
18339;DHT22;9295;44.484;11.240;2023-02-28T16:37:47;6.60;99.90
18339;DHT22;9295;44.484;11.240;2023-02-28T16:40:18;6.50;99.90
18339;DHT22;9295;44.484;11.240;2023-02-28T16:42:49;6.50;99.90